Ajax, Canada
Current Conditions -  °F | °C
As of 4:00 AM on Monday 20 Oct 2014 (Local Time) from CYKZ Reporting Station
Overcast Overcast  
Wind Chill: 43°   Ceiling: 11000
Heat Index: 43°   Visibility: 15mi
Dew Point: 36°   Wind: 0mph
Humidity: 76%   Direction: NA
Pressure: 29.94"   Gusts: NA
Location:  43.85°N, 79.02°W
Report Text: CYKZ 200800Z 00000KT 15SM BKN110 OVC150 06/02 A2994 RMK AC6AS1 SLP144
Loading
Personal Weather Stations






























Interactive Weather Map
Tropical Storm Tracking
New forecast layout! Learn more

10-Day Weather Forecast

Advertisements
Track Severe Weather on mobile